createdAt,value
2023-03-23T16:06:37.855Z,53.29
2023-03-23T16:16:48.709Z,53.39
2023-03-23T16:26:57.794Z,53.88
2023-03-23T16:37:07.172Z,54.07
2023-03-23T16:47:14.574Z,54.47
2023-03-23T16:57:22.315Z,54.80
2023-03-23T17:07:29.714Z,55.14
2023-03-23T17:17:36.510Z,55.54
2023-03-23T17:27:43.959Z,55.84
2023-03-23T17:37:51.753Z,56.17
2023-03-23T17:47:58.922Z,56.43
2023-03-23T17:58:06.459Z,57.00
2023-03-23T18:08:13.841Z,57.33
2023-03-23T18:18:21.159Z,57.86
2023-03-23T18:28:28.342Z,58.30
2023-03-23T18:38:37.538Z,58.55
2023-03-23T18:48:45.408Z,58.81
2023-03-23T18:58:54.498Z,59.14
2023-03-23T19:09:01.642Z,59.47
2023-03-23T19:19:08.672Z,59.72
2023-03-23T19:29:26.717Z,60.10
2023-03-23T19:39:34.618Z,60.41
2023-03-23T19:59:48.825Z,60.96
2023-03-23T20:09:56.092Z,61.15
2023-03-23T20:20:06.360Z,61.54
2023-03-23T20:30:11.762Z,61.65
2023-03-23T20:40:18.860Z,61.81
2023-03-23T20:50:25.273Z,61.96
2023-03-23T21:00:32.337Z,62.33
2023-03-23T21:10:39.586Z,62.56
2023-03-23T21:20:47.343Z,62.74
2023-03-23T21:30:55.336Z,62.97
2023-03-23T21:41:09.746Z,63.20
2023-03-23T21:51:18.520Z,63.37
2023-03-23T22:01:25.889Z,63.31
2023-03-23T22:11:33.721Z,63.50
2023-03-23T22:21:41.174Z,63.45
2023-03-23T22:31:48.568Z,63.58
2023-03-23T22:41:55.808Z,63.66
2023-03-23T22:52:02.805Z,63.76
2023-03-23T23:02:09.955Z,63.81
2023-03-23T23:12:18.466Z,63.97
2023-03-23T23:22:25.585Z,63.95
2023-03-23T23:32:34.160Z,64.02
2023-03-23T23:42:41.567Z,64.17
2023-03-23T23:52:50.363Z,64.30
